Time;durP1;ratioP1;P1;durP2;ratioP2;P2;SDS_P1;SDS_P2;PMS_P1;PMS_P2;Temp;Humidity;BMP_temperature;BMP_pressure;BME280_temperature;BME280_humidity;BME280_pressure;Samples;Min_cycle;Max_cycle;Signal;HPM_P1;HPM_P2
2021/11/01 00:01:26;;;;;;;16.43;14.77;;;9.90;99.90;;;;;;4991534;28;20833;-69
2021/11/01 00:03:52;;;;;;;19.40;15.00;;;9.90;99.90;;;;;;4997233;28;20496;-69
2021/11/01 00:06:20;;;;;;;21.60;16.70;;;9.80;99.90;;;;;;4999354;28;20462;-70
2021/11/01 00:08:47;;;;;;;21.23;16.20;;;9.70;99.90;;;;;;5000794;28;20467;-69
2021/11/01 00:11:15;;;;;;;17.27;15.60;;;9.70;99.90;;;;;;4993368;28;21038;-69
2021/11/01 00:13:42;;;;;;;15.87;14.50;;;9.80;99.90;;;;;;4990460;28;20585;-69
2021/11/01 00:16:09;;;;;;;16.27;15.07;;;9.80;99.90;;;;;;4996042;28;20494;-69
2021/11/01 00:18:36;;;;;;;17.20;14.67;;;9.80;99.90;;;;;;5004916;28;20462;-69
2021/11/01 00:21:03;;;;;;;17.67;15.80;;;9.70;99.90;;;;;;5003966;28;20498;-69
2021/11/01 00:23:30;;;;;;;17.50;15.90;;;9.80;99.90;;;;;;4993630;28;20537;-69
2021/11/01 00:25:57;;;;;;;22.43;15.37;;;9.70;99.90;;;;;;4996356;28;20462;-69
2021/11/01 00:28:25;;;;;;;15.40;14.10;;;9.70;99.90;;;;;;4990000;28;21320;-69
2021/11/01 00:30:56;;;;;;;21.03;14.33;;;9.70;99.90;;;;;;4993215;28;20518;-70
2021/11/01 00:33:24;;;;;;;28.13;15.70;;;9.60;99.90;;;;;;4996523;28;20500;-68
2021/11/01 00:35:51;;;;;;;16.40;15.10;;;9.60;99.90;;;;;;4993672;28;20554;-69
2021/11/01 00:38:18;;;;;;;15.70;14.33;;;9.50;99.90;;;;;;4988158;28;20458;-69
2021/11/01 00:40:46;;;;;;;18.53;15.70;;;9.50;99.90;;;;;;4988969;28;20474;-68
2021/11/01 00:43:13;;;;;;;16.73;15.53;;;9.40;99.90;;;;;;4994041;28;20489;-69
2021/11/01 00:45:41;;;;;;;17.20;15.50;;;9.20;99.90;;;;;;4990193;28;20901;-70
2021/11/01 00:48:08;;;;;;;16.03;14.50;;;9.20;99.90;;;;;;4992492;28;20916;-69
2021/11/01 00:50:41;;;;;;;17.57;15.90;;;9.00;99.90;;;;;;4990444;28;20496;-69
2021/11/01 00:53:08;;;;;;;18.23;16.63;;;8.90;99.90;;;;;;5009491;28;20472;-72
2021/11/01 00:55:37;;;;;;;17.33;15.47;;;8.80;99.90;;;;;;4993837;28;20471;-68
2021/11/01 00:58:06;;;;;;;16.20;15.27;;;8.80;99.90;;;;;;4992329;28;20581;-68
2021/11/01 01:00:34;;;;;;;17.00;15.30;;;8.80;99.90;;;;;;4997714;28;20897;-68
2021/11/01 01:03:03;;;;;;;16.63;15.17;;;8.80;99.90;;;;;;5003677;28;20565;-69
2021/11/01 01:05:30;;;;;;;17.13;15.57;;;8.80;99.90;;;;;;4992980;28;20464;-68
2021/11/01 01:07:56;;;;;;;18.03;16.07;;;8.90;99.90;;;;;;4991226;28;20461;-71
2021/11/01 01:10:23;;;;;;;16.47;15.07;;;8.90;99.90;;;;;;4995942;28;20555;-71
2021/11/01 01:12:50;;;;;;;20.57;15.73;;;8.90;99.90;;;;;;4996156;28;21005;-71
2021/11/01 01:15:20;;;;;;;18.43;15.97;;;8.90;99.90;;;;;;4991233;28;20463;-70
2021/11/01 01:17:48;;;;;;;16.73;15.13;;;8.80;99.90;;;;;;4998773;28;20846;-70
2021/11/01 01:20:18;;;;;;;15.73;14.60;;;8.90;99.90;;;;;;4990816;28;20449;-71
2021/11/01 01:22:46;;;;;;;16.43;15.00;;;8.80;99.90;;;;;;4992150;28;20503;-68
2021/11/01 01:25:20;;;;;;;16.43;15.03;;;8.70;99.90;;;;;;4992511;28;20975;-69
2021/11/01 01:27:48;;;;;;;19.53;16.30;;;8.60;99.90;;;;;;5066105;28;20476;-71
2021/11/01 01:30:16;;;;;;;18.37;16.20;;;8.60;99.90;;;;;;4989157;28;20879;-69
2021/11/01 01:32:43;;;;;;;17.50;15.60;;;8.50;99.90;;;;;;4994556;28;20468;-68
2021/11/01 01:35:13;;;;;;;16.97;15.43;;;8.50;99.90;;;;;;5003180;28;20462;-70
2021/11/01 01:37:42;;;;;;;16.97;14.80;;;8.50;99.90;;;;;;4986934;28;20512;-68
2021/11/01 01:40:10;;;;;;;17.10;15.80;;;8.50;99.90;;;;;;4996265;28;20957;-68
2021/11/01 01:42:38;;;;;;;16.60;15.30;;;8.40;99.90;;;;;;4999364;28;20474;-68
2021/11/01 01:45:08;;;;;;;17.03;15.50;;;8.40;99.90;;;;;;4993795;28;20960;-69
2021/11/01 01:47:37;;;;;;;17.43;15.80;;;8.50;99.90;;;;;;4999390;28;20893;-69
2021/11/01 01:50:05;;;;;;;16.80;15.40;;;8.40;99.90;;;;;;5002261;28;20462;-69
2021/11/01 01:52:32;;;;;;;16.43;14.83;;;8.40;99.90;;;;;;5000256;28;20890;-68
2021/11/01 01:55:01;;;;;;;16.90;15.50;;;8.40;99.90;;;;;;4994217;28;20603;-71
2021/11/01 01:57:29;;;;;;;16.67;15.33;;;8.40;99.90;;;;;;5001022;28;20461;-69
2021/11/01 01:59:56;;;;;;;18.67;16.50;;;8.40;99.90;;;;;;4998917;28;20478;-68
2021/11/01 02:02:24;;;;;;;17.17;15.87;;;8.50;99.90;;;;;;4995939;28;20501;-68
2021/11/01 02:04:51;;;;;;;16.67;15.20;;;8.50;99.90;;;;;;4990967;28;20578;-68
2021/11/01 02:07:28;;;;;;;16.70;15.30;;;8.70;99.90;;;;;;4991072;28;20461;-68
2021/11/01 02:10:02;;;;;;;16.47;15.17;;;8.80;99.90;;;;;;4999523;28;20474;-69
2021/11/01 02:12:35;;;;;;;16.67;15.30;;;8.80;99.90;;;;;;4995488;28;20474;-68
2021/11/01 02:15:07;;;;;;;22.33;15.70;;;8.90;99.90;;;;;;4989907;28;20481;-68
2021/11/01 02:17:36;;;;;;;16.10;14.70;;;9.00;99.90;;;;;;5000778;28;20461;-68
2021/11/01 02:20:06;;;;;;;15.00;14.00;;;9.00;99.90;;;;;;4990458;28;20465;-68
2021/11/01 02:22:41;;;;;;;16.20;14.80;;;9.00;99.90;;;;;;4998325;28;20473;-71
2021/11/01 02:25:11;;;;;;;16.20;15.10;;;9.00;99.90;;;;;;4996277;28;20452;-69
2021/11/01 02:27:41;;;;;;;16.53;15.23;;;8.90;99.90;;;;;;4998699;28;20466;-69
2021/11/01 02:30:10;;;;;;;16.53;15.03;;;9.00;99.90;;;;;;4996502;28;20500;-68
2021/11/01 02:32:40;;;;;;;17.20;15.50;;;9.00;99.90;;;;;;4994271;28;20454;-68
2021/11/01 02:35:08;;;;;;;17.30;15.80;;;9.00;99.90;;;;;;4999777;28;20471;-69
2021/11/01 02:37:37;;;;;;;15.33;14.43;;;9.10;99.90;;;;;;4998236;28;20496;-69
2021/11/01 02:40:05;;;;;;;15.63;14.63;;;9.10;99.90;;;;;;4995018;28;20871;-69
2021/11/01 02:42:34;;;;;;;17.67;16.10;;;9.20;99.90;;;;;;4998032;28;20457;-70
2021/11/01 02:45:06;;;;;;;17.50;16.13;;;9.20;99.90;;;;;;4996501;28;20816;-70
2021/11/01 02:47:34;;;;;;;17.13;15.63;;;9.10;99.90;;;;;;5000244;28;20538;-69
2021/11/01 02:50:02;;;;;;;18.00;16.60;;;9.10;99.90;;;;;;5000571;28;20968;-69
2021/11/01 02:52:30;;;;;;;18.30;16.63;;;9.00;99.90;;;;;;4995887;28;20485;-70
2021/11/01 02:54:58;;;;;;;17.10;15.67;;;8.90;99.90;;;;;;4994066;28;20520;-69
2021/11/01 02:57:26;;;;;;;17.37;16.13;;;8.90;99.90;;;;;;4993549;28;20554;-67
2021/11/01 02:59:54;;;;;;;19.53;16.27;;;8.90;99.90;;;;;;4997234;28;20484;-68
2021/11/01 03:02:22;;;;;;;17.47;16.10;;;9.00;99.90;;;;;;5000046;28;20473;-68
2021/11/01 03:04:50;;;;;;;17.77;16.60;;;8.90;99.90;;;;;;4997977;28;20505;-70
2021/11/01 03:07:18;;;;;;;17.30;16.23;;;8.90;99.90;;;;;;4989562;28;20552;-67
2021/11/01 03:09:48;;;;;;;17.30;15.80;;;8.90;99.90;;;;;;4999459;28;20483;-68
2021/11/01 03:12:18;;;;;;;17.53;15.83;;;8.80;99.90;;;;;;4999133;28;20487;-67
2021/11/01 03:14:56;;;;;;;18.03;16.40;;;8.80;99.90;;;;;;4992682;28;20466;-69
2021/11/01 03:17:26;;;;;;;19.20;16.87;;;8.80;99.90;;;;;;5064306;28;20472;-70
2021/11/01 03:19:59;;;;;;;16.60;15.00;;;8.90;99.90;;;;;;4989443;28;20478;-67
2021/11/01 03:22:27;;;;;;;20.03;17.30;;;8.80;99.90;;;;;;4997998;28;20860;-69
2021/11/01 03:25:01;;;;;;;17.23;15.70;;;8.80;99.90;;;;;;4991868;28;20504;-69
2021/11/01 03:27:29;;;;;;;17.40;16.20;;;8.80;99.90;;;;;;5063059;28;20455;-67
2021/11/01 03:29:57;;;;;;;16.20;14.93;;;8.70;99.90;;;;;;4996916;28;20463;-67
2021/11/01 03:32:26;;;;;;;16.67;15.30;;;8.80;99.90;;;;;;4994481;28;20477;-68
2021/11/01 03:34:55;;;;;;;26.53;16.50;;;8.80;99.90;;;;;;4996086;28;20548;-67
2021/11/01 03:37:24;;;;;;;16.80;15.40;;;8.80;99.90;;;;;;4994914;28;20903;-67
2021/11/01 03:39:52;;;;;;;17.57;15.77;;;8.80;99.90;;;;;;4998716;28;20468;-69
2021/11/01 03:42:21;;;;;;;16.40;15.20;;;8.70;99.90;;;;;;4993231;28;20851;-70
2021/11/01 03:44:52;;;;;;;17.03;15.43;;;8.70;99.90;;;;;;4999652;28;21042;-69
2021/11/01 03:47:21;;;;;;;17.33;15.87;;;8.70;99.90;;;;;;5000204;28;21018;-66
2021/11/01 03:49:56;;;;;;;18.27;15.27;;;8.70;99.90;;;;;;4999155;28;20454;-68
2021/11/01 03:52:27;;;;;;;16.70;15.50;;;8.60;99.90;;;;;;4996035;28;20536;-69
2021/11/01 03:54:54;;;;;;;18.23;16.27;;;8.60;99.90;;;;;;4993879;28;20462;-67
2021/11/01 03:57:22;;;;;;;18.87;15.93;;;8.60;99.90;;;;;;4996315;28;20469;-68
2021/11/01 03:59:52;;;;;;;17.17;15.67;;;8.60;99.90;;;;;;4991099;28;20562;-67
2021/11/01 04:02:21;;;;;;;20.33;15.90;;;8.50;99.90;;;;;;4996620;28;20457;-69
2021/11/01 04:04:51;;;;;;;16.83;15.40;;;8.60;99.90;;;;;;4999684;28;20489;-66
2021/11/01 04:07:20;;;;;;;17.53;16.13;;;8.50;99.90;;;;;;4996310;28;21044;-68
2021/11/01 04:09:47;;;;;;;18.97;16.83;;;8.40;99.90;;;;;;4996836;28;20462;-69
2021/11/01 04:12:15;;;;;;;18.70;17.03;;;8.40;99.90;;;;;;5008456;28;20469;-69
2021/11/01 04:14:45;;;;;;;17.97;16.30;;;8.30;99.90;;;;;;4982879;28;20975;-70
2021/11/01 04:17:22;;;;;;;19.80;17.73;;;8.30;99.90;;;;;;4985560;28;20480;-68
2021/11/01 04:20:01;;;;;;;17.90;16.37;;;8.30;99.90;;;;;;4987092;28;20465;-69
2021/11/01 04:22:30;;;;;;;19.13;17.07;;;8.40;99.90;;;;;;4993304;28;20531;-70
2021/11/01 04:24:58;;;;;;;17.93;16.20;;;8.30;99.90;;;;;;4993086;28;20493;-70
2021/11/01 04:27:25;;;;;;;18.10;16.70;;;8.30;99.90;;;;;;4992579;28;20529;-70
2021/11/01 04:29:53;;;;;;;24.43;17.70;;;8.40;99.90;;;;;;4997060;28;20469;-68
2021/11/01 04:32:31;;;;;;;20.03;18.07;;;8.40;99.90;;;;;;4996184;28;20477;-68
2021/11/01 04:35:03;;;;;;;18.10;16.40;;;8.30;99.90;;;;;;4997017;28;20473;-69
2021/11/01 04:37:30;;;;;;;18.03;16.77;;;8.30;99.90;;;;;;5000585;28;20473;-68
2021/11/01 04:53:54;;;;;;;20.40;17.00;;;8.40;99.90;;;;;;4923473;29;20480;-69
2021/11/01 04:56:24;;;;;;;20.10;18.20;;;8.30;99.90;;;;;;4973480;28;20469;-68
2021/11/01 04:58:51;;;;;;;19.23;17.70;;;8.30;99.90;;;;;;5002970;28;20543;-68
2021/11/01 05:01:22;;;;;;;19.07;17.20;;;8.40;99.90;;;;;;4997550;28;20803;-69
2021/11/01 05:03:52;;;;;;;18.40;16.97;;;8.30;99.90;;;;;;5000891;28;20982;-69
2021/11/01 05:06:23;;;;;;;18.73;16.87;;;8.40;99.90;;;;;;4999888;28;20992;-69
2021/11/01 05:08:52;;;;;;;19.03;17.30;;;8.30;99.90;;;;;;5000922;28;20499;-68
2021/11/01 05:11:28;;;;;;;19.23;17.70;;;8.30;99.90;;;;;;4999416;28;20472;-68
2021/11/01 05:13:55;;;;;;;19.40;17.87;;;8.30;99.90;;;;;;4998519;28;20496;-68
2021/11/01 05:16:32;;;;;;;20.17;18.63;;;8.20;99.90;;;;;;5002269;28;20556;-68
2021/11/01 05:19:05;;;;;;;19.17;17.53;;;8.20;99.90;;;;;;5000578;28;20476;-70
2021/11/01 05:21:37;;;;;;;20.73;18.63;;;8.10;99.90;;;;;;5001757;28;20502;-72
2021/11/01 05:24:07;;;;;;;19.10;17.70;;;8.10;99.90;;;;;;5001412;28;20484;-69
2021/11/01 05:26:53;;;;;;;19.20;17.60;;;8.00;99.90;;;;;;4996111;28;20463;-68
2021/11/01 05:29:20;;;;;;;19.77;18.20;;;8.00;99.90;;;;;;4994672;28;20470;-68
2021/11/01 05:31:54;;;;;;;19.63;17.80;;;8.00;99.90;;;;;;4998338;28;20802;-68
2021/11/01 05:34:22;;;;;;;19.53;17.50;;;8.00;99.90;;;;;;4995913;28;20630;-69
2021/11/01 05:36:50;;;;;;;19.70;18.20;;;7.90;99.90;;;;;;4995606;28;20469;-70
2021/11/01 05:39:17;;;;;;;19.27;17.97;;;7.80;99.90;;;;;;4998790;28;20987;-69
2021/11/01 05:41:45;;;;;;;21.27;19.27;;;7.90;99.90;;;;;;4997543;28;20515;-68
2021/11/01 05:44:13;;;;;;;20.40;18.90;;;7.90;99.90;;;;;;4992397;28;20866;-67
2021/11/01 05:46:45;;;;;;;20.77;19.03;;;7.80;99.90;;;;;;5005935;28;20507;-68
2021/11/01 05:49:12;;;;;;;20.20;18.70;;;7.90;99.90;;;;;;5000539;28;20472;-69
2021/11/01 05:51:39;;;;;;;21.30;19.10;;;7.80;99.90;;;;;;4997615;28;20605;-69
2021/11/01 05:54:10;;;;;;;20.50;18.90;;;7.80;99.90;;;;;;4997486;28;20524;-69
2021/11/01 05:56:46;;;;;;;21.70;17.60;;;7.80;99.90;;;;;;4995171;28;20477;-71
2021/11/01 05:59:39;;;;;;;18.93;17.50;;;7.80;99.90;;;;;;5004545;28;21046;-70
2021/11/01 06:05:10;;;;;;;21.40;19.23;;;7.80;99.90;;;;;;5010538;28;20563;-70
2021/11/01 06:07:44;;;;;;;23.63;19.90;;;7.70;99.90;;;;;;4998051;28;20543;-70
2021/11/01 06:10:23;;;;;;;20.70;18.60;;;7.70;99.90;;;;;;4995978;28;20833;-68
2021/11/01 06:15:35;;;;;;;19.37;17.73;;;7.80;99.90;;;;;;5001843;28;20657;-68
2021/11/01 06:18:03;;;;;;;21.10;19.47;;;7.80;99.90;;;;;;4998213;28;20564;-70
2021/11/01 06:20:30;;;;;;;20.27;18.57;;;7.80;99.90;;;;;;4996286;28;20470;-69
2021/11/01 06:22:58;;;;;;;19.13;17.73;;;7.80;99.90;;;;;;4999294;28;20464;-67
2021/11/01 06:25:28;;;;;;;19.30;18.00;;;7.80;99.90;;;;;;4998098;28;20504;-68
2021/11/01 06:27:55;;;;;;;19.17;17.23;;;7.90;99.90;;;;;;4995685;28;20473;-68
2021/11/01 06:30:27;;;;;;;18.80;16.87;;;7.90;99.90;;;;;;4997995;28;20840;-68
2021/11/01 06:41:29;;;;;;;17.77;16.30;;;8.10;99.90;;;;;;4997924;28;21031;-68
2021/11/01 06:44:14;;;;;;;18.83;16.93;;;8.10;99.90;;;;;;5000106;28;20857;-68
2021/11/01 06:49:46;;;;;;;16.43;15.13;;;8.20;99.90;;;;;;4997850;28;20454;-68
2021/11/01 06:58:02;;;;;;;17.97;16.40;;;8.40;99.90;;;;;;4995390;28;20462;-68
2021/11/01 07:14:23;;;;;;;15.73;14.20;;;8.80;99.90;;;;;;5000925;28;20457;-68
2021/11/01 07:16:53;;;;;;;16.93;13.60;;;8.80;99.90;;;;;;5003984;28;20469;-68
2021/11/01 07:19:29;;;;;;;14.50;13.17;;;8.90;99.90;;;;;;4996807;28;20467;-69
2021/11/01 07:22:16;;;;;;;14.60;13.60;;;9.00;99.90;;;;;;4997647;28;20470;-71
2021/11/01 08:22:49;;;;;;;14.57;13.17;;;10.20;99.90;;;;;;4991378;28;20978;-69
2021/11/01 08:39:34;;;;;;;12.90;11.70;;;10.50;99.90;;;;;;4997671;28;20461;-69
2021/11/01 09:01:40;;;;;;;13.67;12.57;;;11.00;99.90;;;;;;4990249;28;20469;-70
2021/11/01 09:04:15;;;;;;;13.03;11.97;;;11.10;99.90;;;;;;4993708;28;20470;-67
2021/11/01 09:06:53;;;;;;;13.63;12.47;;;11.10;99.90;;;;;;4996457;28;20518;-68
2021/11/01 09:20:40;;;;;;;12.50;11.80;;;11.30;99.90;;;;;;4987203;28;20557;-69
2021/11/01 09:23:26;;;;;;;13.13;12.07;;;11.50;99.90;;;;;;4991377;28;20964;-70
2021/11/01 09:26:01;;;;;;;13.03;12.13;;;11.50;99.90;;;;;;4993400;28;20496;-70
2021/11/01 09:28:34;;;;;;;13.47;12.60;;;11.60;99.90;;;;;;4993013;28;21287;-71
2021/11/01 09:36:43;;;;;;;12.90;12.10;;;11.90;99.90;;;;;;5001366;28;20468;-71
2021/11/01 09:42:06;;;;;;;15.43;13.83;;;12.10;99.90;;;;;;4994963;28;20466;-70
2021/11/01 09:44:33;;;;;;;13.70;12.80;;;12.20;99.90;;;;;;4997334;28;20526;-69
2021/11/01 09:47:02;;;;;;;14.63;13.63;;;12.30;99.90;;;;;;5000248;28;20464;-72
2021/11/01 09:49:30;;;;;;;13.67;12.90;;;12.40;99.90;;;;;;4994010;28;20466;-68
2021/11/01 09:51:59;;;;;;;13.47;12.40;;;12.30;99.90;;;;;;4987836;28;20824;-71
2021/11/01 09:54:29;;;;;;;13.83;12.90;;;12.40;99.90;;;;;;4995499;28;20538;-69
2021/11/01 09:57:02;;;;;;;14.30;13.20;;;12.40;99.90;;;;;;4991425;28;20570;-70
2021/11/01 09:59:33;;;;;;;14.67;13.60;;;12.60;99.90;;;;;;4985703;28;21002;-70
2021/11/01 10:02:02;;;;;;;15.03;13.07;;;12.60;99.90;;;;;;4991117;28;20473;-71
2021/11/01 10:04:32;;;;;;;14.43;13.33;;;12.70;99.90;;;;;;4996656;28;20823;-70
2021/11/01 10:07:21;;;;;;;13.50;12.80;;;12.70;99.90;;;;;;4989377;28;20503;-72
2021/11/01 10:09:52;;;;;;;14.67;13.60;;;12.60;99.90;;;;;;4993122;28;20653;-72
2021/11/01 10:12:22;;;;;;;15.67;14.33;;;12.60;99.90;;;;;;4991039;28;20472;-69
2021/11/01 10:14:53;;;;;;;15.17;14.10;;;12.60;99.90;;;;;;4987804;28;20465;-72
2021/11/01 10:17:35;;;;;;;14.50;13.13;;;12.70;99.90;;;;;;4994028;28;20555;-73
2021/11/01 10:20:08;;;;;;;13.60;12.70;;;12.80;99.90;;;;;;4994134;28;20461;-68
2021/11/01 10:22:37;;;;;;;14.80;13.67;;;13.10;99.90;;;;;;4994880;28;20497;-69
2021/11/01 10:25:09;;;;;;;13.20;12.50;;;13.30;99.90;;;;;;4991263;28;20862;-69
2021/11/01 10:27:38;;;;;;;14.10;13.20;;;13.60;99.90;;;;;;4988850;28;20549;-68
2021/11/01 10:30:09;;;;;;;13.60;12.80;;;14.00;99.90;;;;;;4995579;28;20458;-69
2021/11/01 10:32:43;;;;;;;13.97;13.10;;;14.30;99.90;;;;;;4990565;28;20461;-68
2021/11/01 10:35:20;;;;;;;13.57;12.70;;;14.30;99.90;;;;;;4988762;28;20832;-68
2021/11/01 10:38:18;;;;;;;14.67;13.43;;;14.70;99.90;;;;;;4993325;28;20458;-69
2021/11/01 10:40:51;;;;;;;13.13;11.83;;;14.40;99.90;;;;;;4989013;28;20466;-68
2021/11/01 10:43:42;;;;;;;13.60;12.80;;;14.50;99.90;;;;;;4991101;28;20664;-69
2021/11/01 10:46:41;;;;;;;13.67;12.73;;;15.00;99.90;;;;;;5015021;28;20973;-68
2021/11/01 10:57:41;;;;;;;14.50;13.50;;;15.30;99.90;;;;;;4997061;28;20645;-70
2021/11/01 11:11:20;;;;;;;13.77;12.50;;;15.40;99.90;;;;;;4993127;28;20461;-73
2021/11/01 11:13:51;;;;;;;14.23;13.30;;;15.60;99.90;;;;;;4994502;28;20964;-71
2021/11/01 11:16:41;;;;;;;13.27;12.53;;;15.50;99.90;;;;;;4988673;28;20558;-69
2021/11/01 11:19:18;;;;;;;13.80;13.00;;;15.10;99.90;;;;;;4991822;28;20551;-70
2021/11/01 11:30:30;;;;;;;14.53;13.53;;;15.70;99.90;;;;;;4986385;28;21159;-69
2021/11/01 11:39:07;;;;;;;14.43;13.37;;;15.60;99.90;;;;;;4989570;28;20501;-69
2021/11/01 11:47:24;;;;;;;16.80;14.50;;;15.60;99.90;;;;;;4958585;28;20458;-70
2021/11/01 11:49:52;;;;;;;15.07;14.07;;;16.20;99.90;;;;;;4988281;28;20472;-72
2021/11/01 11:52:23;;;;;;;14.63;13.63;;;15.90;99.90;;;;;;4989629;28;20458;-73
2021/11/01 11:54:53;;;;;;;14.90;13.90;;;16.00;99.90;;;;;;4983806;28;20560;-69
2021/11/01 11:57:22;;;;;;;14.80;13.80;;;15.60;99.90;;;;;;4993442;28;20794;-71
2021/11/01 11:59:51;;;;;;;14.73;13.93;;;15.10;99.90;;;;;;4988911;28;20463;-69
2021/11/01 12:02:32;;;;;;;15.33;13.70;;;15.40;99.90;;;;;;4990843;28;20462;-70
2021/11/01 12:05:13;;;;;;;14.57;13.60;;;16.30;99.90;;;;;;4997005;28;20806;-70
2021/11/01 12:07:51;;;;;;;14.37;13.57;;;16.70;99.90;;;;;;4990714;28;20832;-71
2021/11/01 12:10:45;;;;;;;14.93;13.80;;;16.70;99.90;;;;;;4973454;28;20482;-70
2021/11/01 12:13:27;;;;;;;15.17;14.07;;;17.10;99.90;;;;;;4991189;28;20625;-69
2021/11/01 12:18:47;;;;;;;15.27;14.50;;;17.50;99.90;;;;;;4988978;28;20975;-68
2021/11/01 12:21:14;;;;;;;15.17;14.30;;;16.40;99.90;;;;;;4990233;28;20931;-69
2021/11/01 12:23:43;;;;;;;15.60;14.50;;;16.20;99.90;;;;;;4987603;28;20822;-71
2021/11/01 12:26:12;;;;;;;14.93;14.13;;;16.20;99.90;;;;;;4997196;28;20497;-68
2021/11/01 12:28:43;;;;;;;15.23;14.33;;;16.20;99.90;;;;;;4993062;28;20877;-70
2021/11/01 12:31:11;;;;;;;16.00;15.10;;;16.10;99.90;;;;;;4994153;28;20462;-68
2021/11/01 12:33:40;;;;;;;15.00;14.00;;;15.70;99.90;;;;;;4992511;28;20561;-68
2021/11/01 12:57:28;;;;;;;15.37;14.40;;;16.20;99.90;;;;;;5057421;28;20452;-70
2021/11/01 12:59:56;;;;;;;16.60;15.20;;;16.70;99.90;;;;;;5087189;28;20827;-72
2021/11/01 13:02:35;;;;;;;15.87;14.57;;;17.00;99.90;;;;;;5092436;28;20458;-70
2021/11/01 13:05:07;;;;;;;14.30;13.70;;;17.10;99.90;;;;;;5095189;28;20474;-70
2021/11/01 13:07:50;;;;;;;17.40;15.33;;;17.00;99.90;;;;;;5091827;28;20911;-70
2021/11/01 13:10:25;;;;;;;15.73;14.50;;;17.10;99.90;;;;;;5090073;28;20465;-74
2021/11/01 13:18:52;;;;;;;15.00;14.30;;;16.60;99.90;;;;;;5048782;28;20986;-71
2021/11/01 13:21:23;;;;;;;16.10;15.10;;;16.90;99.90;;;;;;5066512;28;20477;-70
2021/11/01 13:23:51;;;;;;;16.27;14.67;;;16.80;99.90;;;;;;5083827;28;20809;-72
2021/11/01 13:26:33;;;;;;;15.40;14.23;;;16.90;99.90;;;;;;5086397;28;20488;-73
2021/11/01 13:34:57;;;;;;;16.20;14.83;;;17.00;99.90;;;;;;5095484;28;20493;-74
2021/11/01 13:37:27;;;;;;;16.07;15.17;;;17.30;99.90;;;;;;5090048;28;20496;-74
2021/11/01 13:40:03;;;;;;;15.70;14.13;;;17.50;99.90;;;;;;5085063;28;21087;-71
2021/11/01 13:42:31;;;;;;;15.50;14.60;;;17.80;99.90;;;;;;5089588;28;20471;-71
2021/11/01 13:45:09;;;;;;;14.40;13.60;;;17.50;99.90;;;;;;5084079;28;20466;-74
2021/11/01 13:47:44;;;;;;;14.50;13.80;;;17.40;99.90;;;;;;5083186;28;20504;-73
2021/11/01 13:50:11;;;;;;;15.10;14.10;;;17.50;99.90;;;;;;5076447;28;20464;-73
2021/11/01 13:52:41;;;;;;;14.80;14.00;;;17.20;99.90;;;;;;5078791;28;20478;-70
2021/11/01 13:55:18;;;;;;;15.43;14.43;;;17.60;99.90;;;;;;5075215;28;20512;-71
2021/11/01 13:57:53;;;;;;;15.10;14.40;;;17.30;99.90;;;;;;5081195;28;20461;-72
2021/11/01 14:00:29;;;;;;;15.47;14.60;;;17.20;99.90;;;;;;5080401;28;20472;-75
2021/11/01 14:03:09;;;;;;;16.43;15.03;;;17.40;99.90;;;;;;5072219;28;20865;-71
2021/11/01 14:11:32;;;;;;;16.33;15.43;;;17.60;99.90;;;;;;5076218;28;21070;-70
2021/11/01 14:16:45;;;;;;;16.83;15.73;;;18.30;99.90;;;;;;5066925;28;20505;-72
2021/11/01 14:19:20;;;;;;;16.60;15.63;;;17.80;99.90;;;;;;5079672;28;20566;-70
2021/11/01 15:06:58;;;;;;;15.97;14.87;;;16.20;99.90;;;;;;5069908;28;20464;-70
2021/11/01 15:15:11;;;;;;;19.73;18.30;;;16.70;99.90;;;;;;5072264;28;20463;-70
2021/11/01 15:17:51;;;;;;;18.20;16.83;;;16.80;99.90;;;;;;5072497;28;20474;-72
2021/11/01 15:20:44;;;;;;;16.80;15.63;;;16.80;99.90;;;;;;5073962;28;21041;-73
2021/11/01 15:23:29;;;;;;;17.33;15.17;;;16.30;99.90;;;;;;5073187;28;20485;-73
2021/11/01 15:37:27;;;;;;;16.50;15.50;;;15.20;99.90;;;;;;5063048;28;20859;-70
2021/11/01 16:16:15;;;;;;;15.20;14.27;;;12.50;99.90;;;;;;5075690;28;20495;-69
2021/11/01 16:18:44;;;;;;;17.00;15.93;;;12.30;99.90;;;;;;5078881;28;20484;-70
2021/11/01 16:21:13;;;;;;;16.03;14.80;;;12.20;99.90;;;;;;5074633;28;20538;-69
2021/11/01 16:23:42;;;;;;;17.00;15.63;;;12.10;99.90;;;;;;5068138;28;20473;-70
2021/11/01 16:26:18;;;;;;;16.57;15.20;;;11.90;99.90;;;;;;5074171;28;20552;-69
2021/11/01 16:28:46;;;;;;;16.27;15.13;;;11.80;99.90;;;;;;5069892;28;20517;-69
2021/11/01 16:31:25;;;;;;;18.33;17.03;;;11.60;99.90;;;;;;5085188;28;20549;-69
2021/11/01 16:33:56;;;;;;;17.00;15.60;;;11.50;99.90;;;;;;5070348;28;20469;-69
2021/11/01 16:36:45;;;;;;;15.27;14.37;;;11.40;99.90;;;;;;5075296;28;21352;-69
2021/11/01 16:39:13;;;;;;;15.80;14.60;;;11.30;99.90;;;;;;5073224;28;20465;-69
2021/11/01 16:41:42;;;;;;;15.73;14.63;;;11.30;99.90;;;;;;5071255;28;20454;-69
2021/11/01 16:44:16;;;;;;;16.53;15.40;;;11.20;99.90;;;;;;5072008;28;20871;-69
2021/11/01 16:46:44;;;;;;;16.37;15.20;;;11.10;99.90;;;;;;5078359;28;20472;-71
2021/11/01 16:49:11;;;;;;;16.93;15.80;;;11.00;99.90;;;;;;5070928;28;20941;-72
2021/11/01 16:51:42;;;;;;;15.87;14.87;;;10.90;99.90;;;;;;5072433;28;20571;-71
2021/11/01 16:54:13;;;;;;;15.33;14.30;;;10.90;99.90;;;;;;5076545;28;20560;-69
2021/11/01 16:56:52;;;;;;;16.33;15.10;;;10.80;99.90;;;;;;5072926;28;20561;-71
2021/11/01 16:59:32;;;;;;;16.50;15.30;;;10.70;99.90;;;;;;5070055;28;21034;-69
2021/11/01 17:02:12;;;;;;;15.97;14.87;;;10.50;99.90;;;;;;5075382;28;20468;-71
2021/11/01 17:04:42;;;;;;;16.27;14.97;;;10.40;99.90;;;;;;5068640;28;21158;-74
2021/11/01 17:07:18;;;;;;;18.63;17.03;;;10.30;99.90;;;;;;5080759;28;20492;-69
2021/11/01 17:26:26;;;;;;;19.37;17.97;;;9.90;99.90;;;;;;5076294;28;20468;-69
2021/11/01 17:29:20;;;;;;;17.60;16.40;;;9.80;99.90;;;;;;5072698;28;20490;-68
2021/11/01 17:34:46;;;;;;;17.03;16.03;;;9.80;99.90;;;;;;5071615;28;20593;-69
2021/11/01 17:38:02;;;;;;;17.97;16.87;;;9.80;99.90;;;;;;5074523;28;20495;-70
2021/11/01 18:41:34;;;;;;;17.30;15.90;;;9.50;99.90;;;;;;5042983;28;20549;-71
2021/11/01 18:44:18;;;;;;;16.87;15.37;;;9.60;99.90;;;;;;5069541;28;20545;-67
2021/11/01 18:52:29;;;;;;;17.80;16.40;;;9.70;99.90;;;;;;5074181;28;20754;-70
2021/11/01 18:54:57;;;;;;;17.17;16.07;;;9.80;99.90;;;;;;5074346;28;20582;-73
2021/11/01 18:57:28;;;;;;;23.07;20.90;;;9.70;99.90;;;;;;5081672;28;20470;-68
2021/11/01 19:00:03;;;;;;;18.63;17.23;;;9.70;99.90;;;;;;5080947;28;20987;-73
2021/11/01 19:02:39;;;;;;;16.53;15.47;;;9.60;99.90;;;;;;5075942;28;20465;-71
2021/11/01 19:05:14;;;;;;;20.37;18.70;;;9.50;99.90;;;;;;5076652;28;20472;-69
2021/11/01 19:07:47;;;;;;;20.27;17.97;;;9.40;99.90;;;;;;5073093;28;20484;-72
2021/11/01 20:03:38;;;;;;;16.23;15.07;;;9.10;99.90;;;;;;5072459;28;20478;-73
2021/11/01 20:06:13;;;;;;;21.67;16.20;;;9.20;99.90;;;;;;5075644;28;21065;-70
2021/11/01 20:11:44;;;;;;;16.57;15.17;;;9.40;99.90;;;;;;5071717;28;20817;-71
2021/11/01 20:14:28;;;;;;;15.80;14.40;;;9.50;99.90;;;;;;5074460;28;20461;-70
2021/11/01 21:26:38;;;;;;;19.17;17.60;;;9.20;99.90;;;;;;5052853;28;20491;-69
2021/11/01 21:29:05;;;;;;;19.50;17.70;;;9.10;99.90;;;;;;5045992;28;20466;-71
2021/11/01 21:31:33;;;;;;;20.00;18.23;;;9.10;99.90;;;;;;5035915;28;20569;-69
2021/11/01 21:34:02;;;;;;;18.40;17.20;;;8.90;99.90;;;;;;5039830;28;20465;-71
2021/11/01 21:36:29;;;;;;;19.40;17.80;;;8.90;99.90;;;;;;5036826;28;20471;-70
2021/11/01 21:38:58;;;;;;;20.87;19.10;;;8.80;99.90;;;;;;5036242;28;20518;-69
2021/11/01 21:41:28;;;;;;;20.70;19.07;;;8.80;99.90;;;;;;5039462;28;20540;-71
2021/11/01 21:43:57;;;;;;;25.30;22.90;;;8.70;99.90;;;;;;5039652;28;20463;-69
2021/11/01 21:46:24;;;;;;;25.13;22.83;;;8.60;99.90;;;;;;5042896;28;20964;-69
2021/11/01 21:48:53;;;;;;;26.30;23.90;;;8.60;99.90;;;;;;5034950;28;20482;-71
2021/11/01 21:51:20;;;;;;;26.17;23.57;;;8.60;99.90;;;;;;5040953;28;20463;-70
2021/11/01 21:53:54;;;;;;;23.73;21.50;;;8.50;99.90;;;;;;5038230;28;20464;-69
2021/11/01 21:56:22;;;;;;;21.63;20.03;;;8.40;99.90;;;;;;5037093;28;20467;-72
2021/11/01 21:59:07;;;;;;;21.23;19.57;;;8.30;99.90;;;;;;5035756;28;20511;-72
2021/11/01 22:10:03;;;;;;;21.10;19.40;;;7.90;99.90;;;;;;5034296;28;20821;-72
2021/11/01 22:16:41;;;;;;;20.03;18.70;;;7.90;99.90;;;;;;5037921;28;20517;-70
2021/11/01 22:18:45;;;;;;;19.87;18.47;;;7.90;99.90;;;;;;5038950;28;20487;-71
2021/11/01 22:21:16;;;;;;;19.63;18.13;;;7.90;99.90;;;;;;5038144;28;20508;-72
2021/11/01 22:23:48;;;;;;;20.63;19.07;;;7.80;99.90;;;;;;5036550;28;20476;-73
2021/11/01 22:26:27;;;;;;;20.73;19.33;;;7.80;99.90;;;;;;5036747;28;20834;-70